createdAt,value
2023-04-18T00:00:27.864Z,7.47
2023-04-18T00:02:54.579Z,7.51
2023-04-18T00:05:21.687Z,7.87
2023-04-18T00:07:48.455Z,7.66
2023-04-18T00:10:16.574Z,7.82
2023-04-18T00:12:43.001Z,7.68
2023-04-18T00:15:11.008Z,7.66
2023-04-18T00:17:37.508Z,7.63
2023-04-18T00:20:04.549Z,7.83
2023-04-18T00:22:30.947Z,7.81
2023-04-18T00:24:57.300Z,7.61
2023-04-18T00:27:25.137Z,7.48
2023-04-18T00:29:51.566Z,7.89
2023-04-18T00:32:18.230Z,7.87
2023-04-18T00:34:45.137Z,7.54
2023-04-18T00:37:12.730Z,7.68
2023-04-18T00:39:39.139Z,7.68
2023-04-18T00:42:05.936Z,7.38
2023-04-18T00:44:33.756Z,7.87
2023-04-18T00:47:00.151Z,7.77
2023-04-18T00:49:27.404Z,7.67
2023-04-18T00:51:55.502Z,8.11
2023-04-18T00:54:22.393Z,7.90
2023-04-18T00:56:48.798Z,7.63
2023-04-18T00:59:15.226Z,7.47
2023-04-18T01:01:43.168Z,7.42
2023-04-18T01:04:09.631Z,7.55
2023-04-18T01:06:36.283Z,7.89
2023-04-18T01:09:02.829Z,7.88
2023-04-18T01:11:29.201Z,7.62
2023-04-18T01:13:59.546Z,7.66
2023-04-18T01:16:26.120Z,8.06
2023-04-18T01:18:53.828Z,7.25
2023-04-18T01:21:20.280Z,7.57
2023-04-18T01:23:47.785Z,7.20
2023-04-18T01:26:15.552Z,7.41
2023-04-18T01:28:41.971Z,7.49
2023-04-18T01:31:08.377Z,7.69
2023-04-18T01:33:34.776Z,7.70
2023-04-18T01:36:01.216Z,7.30
2023-04-18T01:38:27.591Z,7.43
2023-04-18T01:40:53.975Z,7.41
2023-04-18T01:43:21.778Z,7.43
2023-04-18T01:45:48.137Z,7.15
2023-04-18T01:48:14.491Z,7.09
2023-04-18T01:50:40.918Z,7.39
2023-04-18T01:53:07.273Z,7.41
2023-04-18T01:55:33.607Z,7.41
2023-04-18T01:58:00.020Z,7.35
2023-04-18T02:00:27.846Z,7.30
2023-04-18T02:02:54.349Z,7.52
2023-04-18T02:05:21.011Z,7.22
2023-04-18T02:07:47.363Z,6.95
2023-04-18T02:10:13.792Z,7.32
2023-04-18T02:12:40.278Z,6.95
2023-04-18T02:15:07.921Z,6.92
2023-04-18T02:17:35.723Z,6.85
2023-04-18T02:20:02.433Z,6.89
2023-04-18T02:22:28.893Z,6.57
2023-04-18T02:24:55.267Z,6.51
2023-04-18T02:27:21.686Z,6.58
2023-04-18T02:29:48.043Z,6.79
2023-04-18T02:32:14.406Z,6.92
2023-04-18T02:34:42.216Z,6.89
2023-04-18T02:37:08.573Z,6.83
2023-04-18T02:39:34.955Z,6.73
2023-04-18T02:42:01.343Z,7.13
2023-04-18T02:44:27.717Z,6.94
2023-04-18T02:46:54.092Z,7.25
2023-04-18T02:49:20.464Z,7.08
2023-04-18T02:51:48.165Z,7.17
2023-04-18T02:54:14.778Z,6.73
2023-04-18T02:56:41.392Z,7.13
2023-04-18T02:59:07.828Z,6.88
2023-04-18T03:01:34.321Z,6.94
2023-04-18T03:04:00.821Z,7.31
2023-04-18T03:06:27.189Z,6.89
2023-04-18T03:08:55.619Z,7.01
2023-04-18T03:11:22.077Z,7.17
2023-04-18T03:13:48.498Z,7.08
2023-04-18T03:16:15.134Z,7.21
2023-04-18T03:18:41.692Z,6.97
2023-04-18T03:21:08.053Z,6.98
2023-04-18T03:23:34.438Z,7.25
2023-04-18T03:26:02.274Z,7.19
2023-04-18T03:28:28.658Z,7.19
2023-04-18T03:30:55.136Z,6.99
2023-04-18T03:33:21.533Z,6.98
2023-04-18T03:35:47.967Z,7.19
2023-04-18T03:38:14.369Z,7.29
2023-04-18T03:40:40.797Z,6.94
2023-04-18T03:43:08.478Z,6.90
2023-04-18T03:45:34.949Z,6.98
2023-04-18T03:48:01.574Z,6.82
2023-04-18T03:50:28.262Z,7.06
2023-04-18T03:52:54.707Z,6.71
2023-04-18T03:55:21.172Z,6.77
2023-04-18T03:57:47.816Z,6.74
2023-04-18T04:00:16.231Z,7.00
2023-04-18T04:02:42.810Z,7.01
2023-04-18T04:05:09.800Z,7.03
2023-04-18T04:07:36.277Z,7.38
2023-04-18T04:10:02.836Z,7.36
2023-04-18T04:12:29.247Z,7.50
2023-04-18T04:14:55.607Z,7.39
2023-04-18T04:17:23.390Z,7.04
2023-04-18T04:19:49.812Z,7.72
2023-04-18T04:22:16.171Z,6.92
2023-04-18T04:24:42.820Z,7.18
2023-04-18T04:27:09.221Z,7.13
2023-04-18T04:29:35.620Z,7.55
2023-04-18T04:32:02.037Z,7.17
2023-04-18T04:34:29.814Z,6.96
2023-04-18T04:36:56.204Z,7.42
2023-04-18T04:39:22.600Z,7.50
2023-04-18T04:41:49.082Z,7.25
2023-04-18T04:44:15.807Z,7.56
2023-04-18T04:46:42.388Z,7.39
2023-04-18T04:49:08.763Z,8.01
2023-04-18T04:51:36.487Z,7.68
2023-04-18T04:54:03.146Z,6.78
2023-04-18T04:56:29.782Z,7.08
2023-04-18T04:58:56.275Z,7.53
2023-04-18T05:01:22.781Z,7.32
2023-04-18T05:03:49.550Z,7.27
2023-04-18T05:06:16.089Z,7.30
2023-04-18T05:08:43.861Z,7.11
2023-04-18T05:11:10.213Z,6.85
2023-04-18T05:13:36.556Z,7.01
2023-04-18T05:16:03.395Z,7.10
2023-04-18T05:18:29.891Z,7.17
2023-04-18T05:20:56.295Z,7.60
2023-04-18T05:23:22.712Z,7.15
2023-04-18T05:25:50.779Z,6.78
2023-04-18T05:28:17.159Z,7.66
2023-04-18T05:30:44.630Z,7.39
2023-04-18T05:33:11.116Z,7.13
2023-04-18T05:35:37.617Z,7.36
2023-04-18T05:38:04.024Z,7.36
2023-04-18T05:40:30.466Z,7.15
2023-04-18T05:42:58.190Z,7.57
2023-04-18T05:45:24.628Z,7.31
2023-04-18T05:47:51.021Z,7.53
2023-04-18T05:50:17.435Z,7.41
2023-04-18T05:52:43.839Z,7.60
2023-04-18T05:55:10.213Z,7.58
2023-04-18T05:57:36.656Z,7.85
2023-04-18T06:00:05.554Z,7.35
2023-04-18T06:02:32.092Z,7.34
2023-04-18T06:04:58.862Z,7.81
2023-04-18T06:07:25.408Z,7.57
2023-04-18T06:09:51.990Z,7.50
2023-04-18T06:12:18.378Z,7.12
2023-04-18T06:14:44.814Z,7.06
2023-04-18T06:17:12.809Z,7.19
2023-04-18T06:19:39.209Z,7.52
2023-04-18T06:22:05.674Z,7.92
2023-04-18T06:24:32.071Z,7.78
2023-04-18T06:26:58.443Z,7.73
2023-04-18T06:29:24.936Z,7.45
2023-04-18T06:31:51.321Z,7.68
2023-04-18T06:34:19.068Z,7.72
2023-04-18T06:36:45.633Z,7.60
2023-04-18T06:39:12.052Z,7.35
2023-04-18T06:41:38.427Z,7.59
2023-04-18T06:44:04.998Z,7.80
2023-04-18T06:46:32.018Z,8.01
2023-04-18T06:48:58.611Z,8.03
2023-04-18T06:51:26.406Z,7.59
2023-04-18T06:53:52.923Z,7.84
2023-04-18T06:56:19.789Z,7.62
2023-04-18T06:58:46.345Z,7.30
2023-04-18T07:01:12.738Z,7.26
2023-04-18T07:03:39.284Z,7.31
2023-04-18T07:06:06.253Z,7.51
2023-04-18T07:08:34.089Z,7.39
2023-04-18T07:11:00.471Z,7.58
2023-04-18T07:13:26.890Z,7.48
2023-04-18T07:15:53.266Z,7.74
2023-04-18T07:18:30.312Z,7.82
2023-04-18T07:21:03.717Z,7.81
2023-04-18T07:23:30.161Z,8.21
2023-04-18T07:25:58.109Z,7.61
2023-04-18T07:28:24.721Z,8.38
2023-04-18T07:30:51.289Z,7.72
2023-04-18T07:33:20.101Z,7.52
2023-04-18T07:35:46.718Z,7.51
2023-04-18T07:38:13.363Z,7.78
2023-04-18T07:40:39.792Z,7.62
2023-04-18T07:43:07.892Z,7.93
2023-04-18T07:45:34.281Z,7.96
2023-04-18T07:48:00.686Z,8.02
2023-04-18T07:50:27.332Z,8.10
2023-04-18T07:52:53.760Z,7.87
2023-04-18T07:55:20.129Z,8.26
2023-04-18T07:57:47.539Z,8.41
2023-04-18T08:00:16.434Z,8.47
2023-04-18T08:02:43.076Z,8.36
2023-04-18T08:05:10.100Z,8.32
2023-04-18T08:07:36.553Z,9.00
2023-04-18T08:10:03.080Z,9.51
2023-04-18T08:12:29.735Z,10.20
2023-04-18T08:14:56.233Z,11.47
2023-04-18T08:17:24.051Z,9.93
2023-04-18T08:19:50.668Z,10.30
2023-04-18T08:22:17.100Z,10.27
2023-04-18T08:25:01.038Z,12.57
2023-04-18T08:27:29.913Z,11.75
2023-04-18T08:29:56.287Z,10.73
2023-04-18T08:32:24.047Z,10.77
2023-04-18T08:34:50.470Z,10.82
2023-04-18T08:37:16.893Z,11.30
2023-04-18T08:39:43.328Z,14.00
2023-04-18T08:42:10.553Z,11.38
2023-04-18T08:44:37.238Z,11.51
2023-04-18T08:47:03.650Z,11.44
2023-04-18T08:49:31.797Z,12.58
2023-04-18T08:51:59.773Z,14.07
2023-04-18T08:54:27.412Z,11.99
2023-04-18T08:57:04.492Z,10.52
2023-04-18T08:59:30.904Z,10.55
2023-04-18T09:01:57.825Z,10.63
2023-04-18T09:04:36.905Z,10.50
2023-04-18T09:07:04.824Z,11.55
2023-04-18T09:09:45.947Z,11.33
2023-04-18T09:12:13.755Z,12.41
2023-04-18T09:14:41.302Z,12.95
2023-04-18T09:17:07.756Z,14.68
2023-04-18T09:19:35.546Z,11.30
2023-04-18T09:22:02.834Z,10.59
2023-04-18T09:24:29.244Z,11.98
2023-04-18T09:26:56.773Z,10.68
2023-04-18T09:29:40.973Z,10.58
2023-04-18T09:32:07.398Z,13.56
2023-04-18T09:34:41.966Z,12.06
2023-04-18T09:37:10.133Z,11.61
2023-04-18T09:39:37.877Z,10.88
2023-04-18T09:42:06.018Z,11.21
2023-04-18T09:44:32.501Z,11.32
2023-04-18T09:46:58.876Z,11.30
2023-04-18T09:49:25.435Z,10.87
2023-04-18T09:51:54.529Z,11.18
2023-04-18T09:54:23.847Z,11.61
2023-04-18T09:56:51.862Z,10.51
2023-04-18T09:59:32.812Z,10.68
2023-04-18T10:01:59.931Z,11.97
2023-04-18T10:04:28.055Z,11.43
2023-04-18T10:06:55.963Z,11.01
2023-04-18T10:09:22.915Z,10.64
2023-04-18T10:11:50.015Z,10.93
2023-04-18T10:14:17.346Z,10.93
2023-04-18T10:16:44.653Z,10.31
2023-04-18T10:19:29.204Z,11.01
2023-04-18T10:21:58.487Z,10.91
2023-04-18T10:24:47.777Z,10.64
2023-04-18T10:27:14.345Z,10.54
2023-04-18T10:29:47.869Z,10.93
2023-04-18T10:32:14.544Z,11.37
2023-04-18T10:34:41.062Z,11.27
2023-04-18T10:37:08.858Z,11.41
2023-04-18T10:39:49.957Z,11.25
2023-04-18T10:42:16.532Z,11.34
2023-04-18T10:44:42.939Z,11.59
2023-04-18T10:47:21.296Z,11.74
2023-04-18T10:49:56.455Z,11.88
2023-04-18T10:52:24.207Z,11.52
2023-04-18T10:54:56.079Z,11.61
2023-04-18T10:57:24.059Z,11.58
2023-04-18T10:59:51.774Z,11.32
2023-04-18T11:02:24.699Z,11.31
2023-04-18T11:04:52.120Z,11.46
2023-04-18T11:07:18.688Z,12.36
2023-04-18T11:09:53.525Z,11.66
2023-04-18T11:12:19.957Z,12.39
2023-04-18T11:14:50.097Z,12.08
2023-04-18T11:17:18.354Z,12.63
2023-04-18T11:19:44.759Z,12.05
2023-04-18T11:22:11.952Z,12.11
2023-04-18T11:24:39.098Z,12.30
2023-04-18T11:27:08.762Z,12.32
2023-04-18T11:29:35.155Z,11.54
2023-04-18T11:32:01.651Z,11.49
2023-04-18T11:34:28.995Z,11.77
2023-04-18T11:36:55.503Z,12.43
2023-04-18T11:39:22.659Z,12.24
2023-04-18T11:41:49.152Z,12.43
2023-04-18T11:44:17.081Z,12.43
2023-04-18T11:46:43.484Z,12.04
2023-04-18T11:49:24.424Z,12.29
2023-04-18T11:51:50.776Z,13.84
2023-04-18T11:54:38.621Z,12.49
2023-04-18T11:57:05.632Z,12.06
2023-04-18T11:59:33.529Z,12.34
2023-04-18T12:02:14.687Z,12.50
2023-04-18T12:04:53.637Z,11.87
2023-04-18T12:07:36.771Z,12.05
2023-04-18T12:10:05.886Z,12.25
2023-04-18T12:12:32.442Z,12.20
2023-04-18T12:15:01.800Z,11.79
2023-04-18T12:17:28.828Z,12.96
2023-04-18T12:19:55.261Z,11.74
2023-04-18T12:22:37.463Z,11.49
2023-04-18T12:25:13.740Z,11.63
2023-04-18T12:27:51.035Z,12.06
2023-04-18T12:30:20.051Z,11.94
2023-04-18T12:32:47.724Z,11.33
2023-04-18T12:35:15.062Z,11.53
2023-04-18T12:37:41.490Z,12.18
2023-04-18T12:40:08.882Z,11.63
2023-04-18T12:42:35.273Z,11.63
2023-04-18T12:45:01.680Z,11.47
2023-04-18T12:47:29.455Z,11.11
2023-04-18T12:49:55.837Z,11.33
2023-04-18T12:52:22.200Z,11.42
2023-04-18T12:54:48.580Z,11.46
2023-04-18T12:57:14.961Z,11.97
2023-04-18T12:59:41.334Z,11.40
2023-04-18T13:02:07.807Z,11.54
2023-04-18T13:04:35.799Z,11.54
2023-04-18T13:07:02.444Z,11.44
2023-04-18T13:09:28.811Z,12.02
2023-04-18T13:11:55.247Z,11.91
2023-04-18T13:14:21.858Z,11.69
2023-04-18T13:16:48.343Z,12.03
2023-04-18T13:19:14.940Z,11.99
2023-04-18T13:21:42.906Z,11.73
2023-04-18T13:24:09.325Z,11.76
2023-04-18T13:26:35.718Z,11.85
2023-04-18T13:29:02.164Z,11.88
2023-04-18T13:31:28.926Z,11.78
2023-04-18T13:33:55.362Z,12.14
2023-04-18T13:36:21.751Z,12.21
2023-04-18T13:38:50.123Z,11.68
2023-04-18T13:41:16.568Z,12.02
2023-04-18T13:43:42.944Z,12.10
2023-04-18T13:46:09.693Z,12.61
2023-04-18T13:48:36.122Z,12.54
2023-04-18T13:51:02.832Z,12.99
2023-04-18T13:53:30.843Z,12.88
2023-04-18T13:55:59.046Z,12.59
2023-04-18T13:58:25.516Z,11.89
2023-04-18T14:00:51.963Z,12.32
2023-04-18T14:03:18.724Z,12.77
2023-04-18T14:05:45.228Z,12.57
2023-04-18T14:08:11.649Z,12.63
2023-04-18T14:10:38.131Z,13.09
2023-04-18T14:13:05.838Z,13.02
2023-04-18T14:15:32.311Z,12.16
2023-04-18T14:17:58.807Z,12.34
2023-04-18T14:20:25.345Z,12.51
2023-04-18T14:22:53.223Z,11.98
2023-04-18T14:25:19.860Z,12.46
2023-04-18T14:27:47.458Z,12.56
2023-04-18T14:30:15.575Z,12.46
2023-04-18T14:32:42.025Z,12.89
2023-04-18T14:35:10.098Z,12.52
2023-04-18T14:37:36.572Z,12.56
2023-04-18T14:40:03.199Z,12.94
2023-04-18T14:42:29.568Z,13.42
2023-04-18T14:44:55.943Z,12.85
2023-04-18T14:47:24.325Z,13.21
2023-04-18T14:49:50.899Z,13.08
2023-04-18T14:52:17.285Z,13.06
2023-04-18T14:54:43.700Z,12.84
2023-04-18T14:57:10.073Z,12.83
2023-04-18T14:59:36.501Z,12.78
2023-04-18T15:02:03.047Z,12.72
2023-04-18T15:04:30.940Z,12.91
2023-04-18T15:06:57.362Z,13.23
2023-04-18T15:09:23.839Z,13.13
2023-04-18T15:11:50.373Z,13.01
2023-04-18T15:14:17.116Z,13.14
2023-04-18T15:16:43.717Z,12.96
2023-04-18T15:19:10.132Z,13.08
2023-04-18T15:21:37.867Z,13.39
2023-04-18T15:24:04.730Z,13.49
2023-04-18T15:26:33.147Z,13.39
2023-04-18T15:29:01.747Z,12.90
2023-04-18T15:31:28.169Z,13.21
2023-04-18T15:33:54.916Z,13.39
2023-04-18T15:36:21.294Z,13.43
2023-04-18T15:38:49.028Z,13.99
2023-04-18T15:41:15.428Z,13.78
2023-04-18T15:43:41.827Z,13.37
2023-04-18T15:46:08.502Z,13.61
2023-04-18T15:48:34.977Z,13.02
2023-04-18T15:51:01.583Z,12.90
2023-04-18T15:53:28.006Z,12.93
2023-04-18T15:55:55.907Z,12.69
2023-04-18T15:58:22.486Z,13.39
2023-04-18T16:00:48.869Z,13.01
2023-04-18T16:03:15.514Z,12.94
2023-04-18T16:05:42.004Z,12.85
2023-04-18T16:08:08.725Z,13.16
2023-04-18T16:10:35.118Z,13.26
2023-04-18T16:13:03.001Z,13.18
2023-04-18T16:15:30.588Z,12.91
2023-04-18T16:17:57.183Z,13.25
2023-04-18T16:20:23.669Z,13.37
2023-04-18T16:22:50.111Z,12.91
2023-04-18T16:25:16.575Z,12.62
2023-04-18T16:27:42.960Z,13.06
2023-04-18T16:30:11.882Z,13.11
2023-04-18T16:32:38.515Z,13.04
2023-04-18T16:35:05.497Z,13.10
2023-04-18T16:37:32.001Z,12.78
2023-04-18T16:39:58.382Z,12.54
2023-04-18T16:42:24.744Z,12.42
2023-04-18T16:44:51.136Z,12.73
2023-04-18T16:47:18.827Z,12.64
2023-04-18T16:49:45.200Z,12.63
2023-04-18T16:52:12.033Z,12.49
2023-04-18T16:54:38.412Z,12.43
2023-04-18T16:57:04.809Z,12.41
2023-04-18T16:59:31.268Z,12.79
2023-04-18T17:01:59.123Z,12.65
2023-04-18T17:04:27.002Z,12.57
2023-04-18T17:06:53.558Z,12.34
2023-04-18T17:09:19.938Z,12.55
2023-04-18T17:11:46.340Z,12.29
2023-04-18T17:14:12.975Z,12.56
2023-04-18T17:16:41.046Z,12.21
2023-04-18T17:19:07.953Z,12.05
2023-04-18T17:21:36.760Z,12.37
2023-04-18T17:24:03.921Z,12.32
2023-04-18T17:26:30.472Z,12.04
2023-04-18T17:28:56.880Z,12.31
2023-04-18T17:31:23.395Z,12.20
2023-04-18T17:33:49.843Z,12.45
2023-04-18T17:36:16.632Z,12.07
2023-04-18T17:38:44.424Z,12.32
2023-04-18T17:41:10.773Z,12.08
2023-04-18T17:43:37.534Z,12.17
2023-04-18T17:46:04.378Z,12.52
2023-04-18T17:48:30.849Z,12.15
2023-04-18T17:50:57.235Z,12.55
2023-04-18T17:53:23.680Z,12.23
2023-04-18T17:55:51.398Z,12.38
2023-04-18T17:58:17.975Z,12.51
2023-04-18T18:00:44.691Z,12.20
2023-04-18T18:03:12.996Z,12.40
2023-04-18T18:05:39.630Z,12.74
2023-04-18T18:08:06.024Z,12.23
2023-04-18T18:10:33.556Z,12.43
2023-04-18T18:13:01.303Z,12.35
2023-04-18T18:15:27.745Z,12.57
2023-04-18T18:17:54.236Z,12.56
2023-04-18T18:20:20.734Z,12.58
2023-04-18T18:22:47.588Z,13.11
2023-04-18T18:25:14.051Z,12.96
2023-04-18T18:27:40.700Z,12.65
2023-04-18T18:30:09.112Z,13.16
2023-04-18T18:32:35.581Z,12.84
2023-04-18T18:35:02.182Z,12.74
2023-04-18T18:37:28.603Z,12.83
2023-04-18T18:39:55.134Z,12.94
2023-04-18T18:42:21.659Z,13.08
2023-04-18T18:44:48.074Z,12.75
2023-04-18T18:47:16.481Z,13.10
2023-04-18T18:49:42.956Z,12.77
2023-04-18T18:52:09.385Z,12.35
2023-04-18T18:54:35.796Z,12.54
2023-04-18T18:57:02.193Z,12.65
2023-04-18T18:59:28.926Z,12.21
2023-04-18T19:01:55.468Z,12.50
2023-04-18T19:04:24.087Z,12.39
2023-04-18T19:06:50.644Z,12.28
2023-04-18T19:09:17.056Z,12.57
2023-04-18T19:11:43.532Z,12.40
2023-04-18T19:14:09.892Z,12.49
2023-04-18T19:16:36.389Z,12.41
2023-04-18T19:19:02.997Z,12.26
2023-04-18T19:21:30.701Z,12.18
2023-04-18T19:23:57.090Z,12.01
2023-04-18T19:26:23.510Z,12.09
2023-04-18T19:28:49.886Z,12.17
2023-04-18T19:31:16.282Z,12.04
2023-04-18T19:33:42.875Z,11.87
2023-04-18T19:36:09.252Z,11.90
2023-04-18T19:38:36.994Z,12.11
2023-04-18T19:41:03.431Z,12.32
2023-04-18T19:43:29.879Z,12.04
2023-04-18T19:45:56.344Z,12.27
2023-04-18T19:48:22.795Z,11.97
2023-04-18T19:50:49.174Z,12.00
2023-04-18T19:53:15.569Z,11.70
2023-04-18T19:55:44.529Z,11.74
2023-04-18T19:58:10.885Z,11.70
2023-04-18T20:00:37.324Z,11.67
2023-04-18T20:03:04.973Z,11.96
2023-04-18T20:05:31.708Z,11.82
2023-04-18T20:07:58.309Z,11.98
2023-04-18T20:10:24.737Z,11.63
2023-04-18T20:12:52.497Z,11.61
2023-04-18T20:15:19.164Z,11.69
2023-04-18T20:17:45.646Z,11.67
2023-04-18T20:20:12.676Z,11.66
2023-04-18T20:22:39.050Z,11.57
2023-04-18T20:25:06.313Z,11.59
2023-04-18T20:27:32.717Z,11.46
2023-04-18T20:30:00.465Z,11.61
2023-04-18T20:32:26.939Z,11.59
2023-04-18T20:34:53.450Z,11.64
2023-04-18T20:37:19.891Z,11.94
2023-04-18T20:39:46.384Z,11.57
2023-04-18T20:42:12.815Z,11.44
2023-04-18T20:44:39.197Z,11.87
2023-04-18T20:47:07.000Z,11.70
2023-04-18T20:49:33.387Z,11.59
2023-04-18T20:51:59.812Z,11.45
2023-04-18T20:54:26.334Z,11.52
2023-04-18T20:56:52.700Z,11.31
2023-04-18T20:59:19.128Z,11.48
2023-04-18T21:01:45.570Z,11.56
2023-04-18T21:04:13.686Z,11.62
2023-04-18T21:06:40.559Z,11.19
2023-04-18T21:09:07.134Z,11.22
2023-04-18T21:11:33.553Z,11.33
2023-04-18T21:13:59.969Z,11.42
2023-04-18T21:16:26.361Z,11.54
2023-04-18T21:18:53.290Z,11.43
2023-04-18T21:21:21.023Z,11.53
2023-04-18T21:23:47.487Z,11.29
2023-04-18T21:26:13.868Z,11.23
2023-04-18T21:28:53.940Z,11.16
2023-04-18T21:31:20.339Z,11.07
2023-04-18T21:33:46.764Z,11.03
2023-04-18T21:36:13.294Z,11.09
2023-04-18T21:38:41.063Z,11.14
2023-04-18T21:41:07.508Z,10.78
2023-04-18T21:43:33.892Z,11.01
2023-04-18T21:46:00.302Z,11.14
2023-04-18T21:48:26.757Z,11.08
2023-04-18T21:50:54.029Z,11.37
2023-04-18T21:53:20.417Z,11.20
2023-04-18T21:55:48.158Z,11.22
2023-04-18T21:58:14.682Z,11.20
2023-04-18T22:00:41.087Z,11.01
2023-04-18T22:03:07.622Z,11.18
2023-04-18T22:05:34.157Z,10.89
2023-04-18T22:08:00.696Z,11.14
2023-04-18T22:10:27.122Z,10.84
2023-04-18T22:12:54.854Z,10.88
2023-04-18T22:15:21.374Z,11.03
2023-04-18T22:17:48.217Z,10.91
2023-04-18T22:20:14.639Z,11.07
2023-04-18T22:22:40.988Z,10.96
2023-04-18T22:25:08.121Z,10.77
2023-04-18T22:27:34.499Z,10.83
2023-04-18T22:30:02.277Z,10.77
2023-04-18T22:32:28.793Z,10.53
2023-04-18T22:34:55.240Z,10.61
2023-04-18T22:37:21.612Z,10.82
2023-04-18T22:39:47.993Z,10.45
2023-04-18T22:42:14.409Z,10.63
2023-04-18T22:44:40.783Z,10.38
2023-04-18T22:47:08.478Z,10.51
2023-04-18T22:49:34.866Z,10.23
2023-04-18T22:52:01.250Z,10.12
2023-04-18T22:54:27.586Z,10.40
2023-04-18T22:56:53.975Z,10.37
2023-04-18T22:59:20.351Z,10.48
2023-04-18T23:01:46.800Z,10.14
2023-04-18T23:04:15.006Z,10.27
2023-04-18T23:06:41.675Z,10.23
2023-04-18T23:09:08.040Z,10.18
2023-04-18T23:11:34.425Z,10.20
2023-04-18T23:14:00.798Z,10.53
2023-04-18T23:16:27.331Z,10.48
2023-04-18T23:18:53.987Z,10.36
2023-04-18T23:21:21.732Z,10.67
2023-04-18T23:23:48.100Z,10.24
2023-04-18T23:26:15.026Z,10.51
2023-04-18T23:28:41.763Z,10.21
2023-04-18T23:31:08.483Z,10.08
2023-04-18T23:33:35.207Z,10.36
2023-04-18T23:36:01.696Z,10.09
2023-04-18T23:38:30.443Z,10.17
2023-04-18T23:40:56.819Z,10.11
2023-04-18T23:43:23.176Z,10.15
2023-04-18T23:45:49.548Z,10.21
2023-04-18T23:48:15.981Z,9.98
2023-04-18T23:50:45.196Z,9.85
2023-04-18T23:53:11.604Z,9.86
2023-04-18T23:55:39.648Z,9.98
2023-04-18T23:58:06.051Z,9.95
